地図

経路データ

SID SEASON NUMBER BASIN SUBBASIN NAME ISO_TIME NATURE LAT LON WMO_WIND WMO_PRES WMO_AGENCY TRACK_TYPE DIST2LAND LANDFALL IFLAG USA_AGENCY USA_ATCF_ID USA_LAT USA_LON USA_RECORD USA_STATUS USA_WIND USA_PRES USA_SSHS USA_R34_NE USA_R34_SE USA_R34_SW USA_R34_NW USA_R50_NE USA_R50_SE USA_R50_SW USA_R50_NW USA_R64_NE USA_R64_SE USA_R64_SW USA_R64_NW USA_POCI USA_ROCI USA_RMW USA_EYE TOKYO_LAT TOKYO_LON TOKYO_GRADE TOKYO_WIND TOKYO_PRES TOKYO_R50_DIR TOKYO_R50_LONG TOKYO_R50_SHORT TOKYO_R30_DIR TOKYO_R30_LONG TOKYO_R30_SHORT TOKYO_LAND CMA_LAT CMA_LON CMA_CAT CMA_WIND CMA_PRES HKO_LAT HKO_LON HKO_CAT HKO_WIND HKO_PRES NEWDELHI_LAT NEWDELHI_LON NEWDELHI_GRADE NEWDELHI_WIND NEWDELHI_PRES NEWDELHI_CI NEWDELHI_DP NEWDELHI_POCI REUNION_LAT REUNION_LON REUNION_TYPE REUNION_WIND REUNION_PRES REUNION_TNUM REUNION_CI REUNION_RMW REUNION_R34_NE REUNION_R34_SE REUNION_R34_SW REUNION_R34_NW REUNION_R50_NE REUNION_R50_SE REUNION_R50_SW REUNION_R50_NW REUNION_R64_NE REUNION_R64_SE REUNION_R64_SW REUNION_R64_NW BOM_LAT BOM_LON BOM_TYPE BOM_WIND BOM_PRES BOM_TNUM BOM_CI BOM_RMW BOM_R34_NE BOM_R34_SE BOM_R34_SW BOM_R34_NW BOM_R50_NE BOM_R50_SE BOM_R50_SW BOM_R50_NW BOM_R64_NE BOM_R64_SE BOM_R64_SW BOM_R64_NW BOM_ROCI BOM_POCI BOM_EYE BOM_POS_METHOD BOM_PRES_METHOD NADI_LAT NADI_LON NADI_CAT NADI_WIND NADI_PRES WELLINGTON_LAT WELLINGTON_LON WELLINGTON_WIND WELLINGTON_PRES DS824_LAT DS824_LON DS824_STAGE DS824_WIND DS824_PRES TD9636_LAT TD9636_LON TD9636_STAGE TD9636_WIND TD9636_PRES TD9635_LAT TD9635_LON TD9635_WIND TD9635_PRES TD9635_ROCI NEUMANN_LAT NEUMANN_LON NEUMANN_CLASS NEUMANN_WIND NEUMANN_PRES MLC_LAT MLC_LON MLC_CLASS MLC_WIND MLC_PRES USA_GUST BOM_GUST BOM_GUST_PER REUNION_GUST REUNION_GUST_PER USA_SEAHGT USA_SEARAD_NE USA_SEARAD_SE USA_SEARAD_SW USA_SEARAD_NW STORM_SPEED STORM_DIR
1942286N20152 1942 63 WP MM NOT_NAMED 1942-10-12 21:00:00 NR 19.6000 152.300 main 2096 2056 __________O___ -1 19.6000 152.300 2 7 323
1942286N20152 1942 63 WP MM NOT_NAMED 1942-10-13 00:00:00 NR 19.8810 152.069 main 2056 2021 __________P___ -1 19.8810 152.069 2 7 321
1942286N20152 1942 63 WP MM NOT_NAMED 1942-10-13 03:00:00 NR 20.1596 151.820 main 2011 1981 __________P___ -1 20.1596 151.820 2 7 318
1942286N20152 1942 63 WP MM NOT_NAMED 1942-10-13 06:00:00 NR 20.4334 151.536 main 1976 1931 __________P___ -1 20.4334 151.536 2 8 313
1942286N20152 1942 63 WP MM NOT_NAMED 1942-10-13 09:00:00 NR 20.7000 151.200 main 1931 1891 __________O___ -1 20.7000 151.200 2 9 308
1942286N20152 1942 63 WP MM NOT_NAMED 1942-10-13 12:00:00 NR 20.9594 150.807 main 1881 1840 __________P___ -1 20.9594 150.807 2 9 305
1942286N20152 1942 63 WP MM NOT_NAMED 1942-10-13 15:00:00 NR 21.2209 150.404 main 1840 1796 __________P___ -1 21.2209 150.404 2 9 307
1942286N20152 1942 63 WP MM NOT_NAMED 1942-10-13 18:00:00 NR 21.4968 150.048 main 1790 1751 __________P___ -1 21.4968 150.048 2 8 316
1942286N20152 1942 63 WP MM NOT_NAMED 1942-10-13 21:00:00 NR 21.8000 149.800 main 1751 1717 __________O___ -1 21.8000 149.800 2 7 334
1942286N20152 1942 63 WP MM NOT_NAMED 1942-10-14 00:00:00 NR 22.1619 149.706 main 1707 1679 __________P___ -1 22.1619 149.706 2 8 355
1942286N20152 1942 63 WP MM NOT_NAMED 1942-10-14 03:00:00 NR 22.5493 149.727 main 1679 1646 __________P___ -1 22.5493 149.727 2 8 9
1942286N20152 1942 63 WP MM NOT_NAMED 1942-10-14 06:00:00 NR 22.9371 149.834 main 1646 1619 __________P___ -1 22.9371 149.834 2 8 18
1942286N20152 1942 63 WP MM NOT_NAMED 1942-10-14 09:00:00 NR 23.3000 150.000 main 1619 1606 __________O___ -1 23.3000 150.000 2 7 24
1942286N20152 1942 63 WP MM NOT_NAMED 1942-10-14 12:00:00 NR 23.5341 150.120 main 1606 1593 __________P___ -1 23.5341 150.120 2 5 31
1942286N20152 1942 63 WP MM NOT_NAMED 1942-10-14 15:00:00 NR 23.7514 150.297 main 1589 1583 __________P___ -1 23.7514 150.297 2 6 39
1942286N20152 1942 63 WP MM NOT_NAMED 1942-10-14 18:00:00 NR 24.0181 150.550 main 1583 1571 __________P___ -1 24.0181 150.550 2 9 40
1942286N20152 1942 63 WP MM NOT_NAMED 1942-10-14 21:00:00 NR 24.4000 150.900 main 1571 1553 __________O___ -1 24.4000 150.900 2 13 40
1942286N20152 1942 63 WP MM NOT_NAMED 1942-10-15 00:00:00 NR 24.9840 151.427 main 1550 1534 __________P___ -1 24.9840 151.427 2 17 39
1942286N20152 1942 63 WP MM NOT_NAMED 1942-10-15 03:00:00 NR 25.6833 152.043 main 1532 1519 __________P___ -1 25.6833 152.043 2 18 37
1942286N20152 1942 63 WP MM NOT_NAMED 1942-10-15 06:00:00 NR 26.4405 152.664 main 1526 1499 __________P___ -1 26.4405 152.664 2 18 34
1942286N20152 1942 63 WP MM NOT_NAMED 1942-10-15 09:00:00 NR 27.2000 153.200 main 1499 1478 __________O___ -1 27.2000 153.200 2 17 29
1942286N20152 1942 63 WP MM NOT_NAMED 1942-10-15 12:00:00 NR 27.9189 153.582 main 1478 1446 __________P___ -1 27.9189 153.582 2 15 22
1942286N20152 1942 63 WP MM NOT_NAMED 1942-10-15 15:00:00 NR 28.5999 153.830 main 1446 1423 __________P___ -1 28.5999 153.830 2 14 15
1942286N20152 1942 63 WP MM NOT_NAMED 1942-10-15 18:00:00 NR 29.2561 153.987 main 1416 1389 __________P___ -1 29.2561 153.987 2 13 10
1942286N20152 1942 63 WP MM NOT_NAMED 1942-10-15 21:00:00 NR 29.9000 154.100 main 1389 __________O___ -1 29.9000 154.100 2 13 9

デジタル台風データ・検索

IBTrACS Databaseについて

本データベースは、米国NOAAが公開する1842年以降の世界の熱帯低気圧のベストトラックデータアーカイブInternational Best Track Archive for Climate Stewardship (IBTrACS)を、ウェブで閲覧しやすい形式に変換したものです。

最終更新日:2021-11-26